Flight Track Log - Related Links

Times and Time Zones

All times are in EDT time to prevent confusion due to time zone crossing. See the FLG4058 flight status page for this flight to view local times or setup timezone preferences in your user account.

Time Position Orientation Groundspeed Altitude Reporting Facility
EDT Latitude Longitude Course Direction KTS MPH feet Rate Location/Type
Wed 11:11:12 AM 33.5400 -86.7978 North 162 186 2,200  Level Atlanta Center
Wed 11:12:19 AM 33.5092 -86.8689 243° Southwest 249 287 4,100 1,984 Climbing Atlanta Center
Wed 11:13:00 AM 33.8586 -86.7333 North  Level FlightAware Approximate
Wed 11:13:19 AM 33.5092 -86.9536 270° West 254 292 6,400  Level Atlanta Center
Wed 11:14:00 AM 33.9622 -86.7333 360° North  Level FlightAware Approximate
Wed 11:14:19 AM 33.5800 -86.9636 353° North 191 220 8,500  Level Atlanta Center
Wed 11:15:00 AM 34.0657 -86.7333 North  Level FlightAware Approximate
Wed 11:15:19 AM 33.6619 -86.9364 15° North 219 252 10,400  Level Atlanta Center
Wed 11:16:00 AM 34.1691 -86.7315 North  Level FlightAware Approximate
Wed 11:16:19 AM 33.7547 -86.9047 16° North 279 321 11,800  Level Atlanta Center
Wed 11:18:44 AM 33.9853 -86.8425 13° North 363 418 15,800 1,580 Climbing Memphis Center
Wed 11:19:44 AM 34.0872 -86.8358 North 358 412 17,200 1,250 Climbing Memphis Center
Wed 11:20:44 AM 34.1892 -86.8292 North 358 412 18,300 1,050 Climbing Memphis Center
Wed 11:21:44 AM 34.2956 -86.8197 North 368 423 19,300 1,000 Climbing Memphis Center
Wed 11:22:44 AM 34.4039 -86.8128 North 373 429 20,300 850 Climbing Memphis Center
Wed 11:23:44 AM 34.5142 -86.8058 North 384 442 21,000 683 Climbing Memphis Center
Wed 11:25:31 AM 34.7236 -86.7883 North 410 472 22,200 898 Climbing Atlanta Center
Wed 11:26:31 AM 34.8344 -86.7819 North 410 472 23,500 1,000 Climbing Atlanta Center
Wed 11:27:31 AM 34.9472 -86.7731 North 405 466 24,200 586 Climbing Atlanta Center
Wed 11:28:44 AM 35.0886 -86.7636 North 416 479 24,800 496 Climbing Memphis Center
Wed 11:29:44 AM 35.1886 -86.7569 North 421 484 25,300 500 Climbing Memphis Center
Wed 11:30:44 AM 35.3094 -86.7492 North 421 484 25,800 500 Climbing Memphis Center
Wed 11:31:44 AM 35.4300 -86.7389 North 421 484 26,300 500 Climbing Memphis Center
Wed 11:32:44 AM 35.5508 -86.7311 North 421 484 26,800 500 Climbing Memphis Center
Wed 11:33:44 AM 35.6819 -86.7200 North 421 484 27,300 500 Climbing Memphis Center
Wed 11:34:44 AM 35.8047 -86.7122 North 426 490 27,800 550 Climbing Memphis Center
Wed 11:35:44 AM 35.9233 -86.7017 North 426 490 28,400 550 Climbing Memphis Center
Wed 11:36:44 AM 36.0417 -86.6914 North 421 484 28,900 300 Climbing Memphis Center
Wed 11:37:44 AM 36.1606 -86.6861 North 421 484 29,000 50 Climbing Memphis Center
Wed 11:38:44 AM 36.2853 -86.6728 North 427 491 29,000  Level Memphis Center
Wed 11:39:44 AM 36.4142 -86.6617 North 445 512 29,000  Level Memphis Center
Wed 11:40:44 AM 36.5389 -86.6533 North 452 520 29,000  Level Memphis Center
Wed 11:41:44 AM 36.6636 -86.6450 North 452 520 29,000  Level Memphis Center
Wed 11:42:44 AM 36.7883 -86.6342 North 452 520 29,000  Level Memphis Center
Wed 11:44:41 AM 37.0108 -86.6147 North 449 517 29,000  Level Indianapolis Center
Wed 11:45:42 AM 37.1389 -86.6025 North 455 524 29,000  Level Indianapolis Center
Wed 11:46:44 AM 37.2875 -86.5906 North 455 524 29,000  Level Indianapolis Center
Wed 11:47:46 AM 37.4144 -86.5803 North 453 521 29,000  Level Indianapolis Center
Wed 11:48:48 AM 37.5422 -86.5678 North 456 525 29,000  Level Indianapolis Center
Wed 11:49:49 AM 37.6589 -86.5589 North 454 522 29,000  Level Indianapolis Center
Wed 11:50:51 AM 37.7847 -86.5481 North 453 521 29,000  Level Indianapolis Center
Wed 11:51:53 AM 37.9358 -86.5353 North 453 521 29,000  Level Indianapolis Center
Wed 11:52:55 AM 38.0617 -86.5228 North 453 521 29,000  Level Indianapolis Center
Wed 11:53:56 AM 38.1850 -86.5131 North 446 513 29,000  Level Indianapolis Center
Wed 11:54:58 AM 38.3075 -86.5006 North 443 510 29,000  Level Indianapolis Center
Wed 11:56:00 AM 38.4297 -86.4908 North 443 510 29,000  Level Indianapolis Center
Wed 11:57:01 AM 38.5514 -86.4811 North 440 506 29,000  Level Indianapolis Center
Wed 11:58:03 AM 38.6972 -86.4675 North 439 505 29,000  Level Indianapolis Center
Wed 11:59:05 AM 38.8200 -86.4561 North 441 507 29,000  Level Indianapolis Center
Wed 12:00:06 PM 38.9308 -86.4469 North 441 507 29,000  Level Indianapolis Center
Wed 12:01:08 PM 39.0528 -86.4367 North 440 506 29,000  Level Indianapolis Center
Wed 12:02:10 PM 39.1969 -86.3994 11° North 442 509 29,000  Level Indianapolis Center
Wed 12:03:12 PM 39.3158 -86.3611 14° North 441 507 29,000  Level Indianapolis Center
Wed 12:04:13 PM 39.4347 -86.3267 13° North 440 506 29,000  Level Indianapolis Center
Wed 12:05:15 PM 39.5531 -86.2906 13° North 439 505 29,000  Level Indianapolis Center
Wed 12:06:17 PM 39.6714 -86.2533 14° North 437 503 29,000  Level Indianapolis Center
Wed 12:07:18 PM 39.7989 -86.1850 22° Northeast 440 506 29,000  Level Indianapolis Center
Wed 12:08:20 PM 39.9006 -86.1006 32° Northeast 444 511 29,000  Level Indianapolis Center
Wed 12:09:22 PM 40.0039 -86.0147 32° Northeast 442 509 29,000  Level Indianapolis Center
Wed 12:10:23 PM 40.1075 -85.9275 33° Northeast 444 511 29,000  Level Indianapolis Center
Wed 12:11:11 PM 40.1922 -85.8567 33° Northeast 446 513 29,000  Level Chicago Center
Wed 12:12:13 PM 40.2986 -85.7667 33° Northeast 453 521 29,000  Level Chicago Center
Wed 12:13:15 PM 40.4047 -85.6781 32° Northeast 454 522 29,000 -484 Level Chicago Center
Wed 12:14:17 PM 40.5319 -85.5697 33° Northeast 456 525 28,000 -1,452 Descending Chicago Center
Wed 12:15:19 PM 40.6356 -85.4800 33° Northeast 449 517 26,000 -1,984 Descending Chicago Center
Wed 12:16:21 PM 40.7425 -85.3903 32° Northeast 433 498 23,900 -1,984 Descending Chicago Center
Wed 12:17:23 PM 40.8419 -85.3022 34° Northeast 431 496 21,900 -1,403 Descending Chicago Center
Wed 12:18:25 PM 40.9439 -85.2133 33° Northeast 440 506 21,000 -439 Descending Chicago Center
Wed 12:19:26 PM 41.0392 -85.1214 36° Northeast 430 495 21,000  Level Chicago Center
Wed 12:20:28 PM 41.1308 -85.0231 39° Northeast 427 491 21,000  Level Chicago Center
Wed 12:21:30 PM 41.2403 -84.9056 39° Northeast 424 488 21,000  Level Chicago Center
Wed 12:22:32 PM 41.3328 -84.8053 39° Northeast 431 496 21,000  Level Chicago Center
Wed 12:23:34 PM 41.4178 -84.7144 39° Northeast 396 456 21,000  Level Chicago Center
Wed 12:24:36 PM 41.5017 -84.6247 39° Northeast 390 449 21,000 -56 Level Chicago Center
Wed 12:25:21 PM 41.5744 -84.5472 39° Northeast 393 452 20,900 -629 Descending Cleveland Center
Wed 12:26:21 PM 41.6569 -84.4522 41° Northeast 388 447 19,900 -1,500 Descending Cleveland Center
Wed 12:27:21 PM 41.7150 -84.3361 56° Northeast 377 434 17,900 -2,211 Descending Cleveland Center
Wed 12:27:37 PM 41.7244 -84.3003 71° East 398 458 17,100 -2,700 Descending Cleveland Center
Wed 12:28:21 PM 41.7589 -84.2050 64° Northeast 372 428 15,200 -2,430 Descending Cleveland Center
Wed 12:28:56 PM 41.7881 -84.1369 60° Northeast 387 445 13,900 -2,500 Descending Cleveland Center
Wed 12:29:21 PM 41.8064 -84.0822 66° East 372 428 12,700 -1,701 Descending Cleveland Center
Wed 12:30:03 PM 41.8483 -84.0036 54° Northeast 352 405 12,000 -700 Descending Cleveland Center
Wed 12:30:21 PM 41.8639 -83.9739 55° Northeast 360 414 12,000  Level Cleveland Center
Wed 12:31:04 PM 41.9178 -83.9125 40° Northeast 353 406 12,000  Level Cleveland Center
Wed 12:31:21 PM 41.9331 -83.8881 50° Northeast 347 399 12,000  Level Cleveland Center
Wed 12:31:53 PM 41.9678 -83.8453 42° Northeast 285 328 12,000  Level Cleveland Center
Wed 12:32:21 PM 41.9936 -83.8131 43° Northeast 315 362 12,000  Level Cleveland Center
Wed 12:33:21 PM 42.0478 -83.7403 45° Northeast 290 334 12,000  Level Cleveland Center
Wed 12:33:56 PM 42.0822 -83.7000 41° Northeast 288 331 12,000  Level Cleveland Center
Wed 12:34:21 PM 42.1061 -83.6647 48° Northeast 284 327 12,000  Level Cleveland Center
Wed 12:34:57 PM 42.1386 -83.6214 45° Northeast 289 333 12,000  Level Cleveland Center
Wed 12:35:21 PM 42.1622 -83.5917 43° Northeast 284 327 12,000  Level Cleveland Center
Wed 12:36:04 PM 42.2011 -83.5403 44° Northeast 254 292 12,000  Level Cleveland Center
Wed 12:36:21 PM 42.2119 -83.5242 48° Northeast 271 312 12,000 -787 Level Cleveland Center
Wed 12:37:05 PM 42.2583 -83.5011 20° North 225 259 11,200 -1,200 Descending Cleveland Center
Wed 12:37:21 PM 42.2775 -83.4906 22° Northeast 253 291 10,800 -1,967 Descending Cleveland Center
Wed 12:38:06 PM 42.3219 -83.4617 26° Northeast 237 273 9,200 -1,980 Descending Cleveland Center
Wed 12:39:01 PM 42.3747 -83.4333 22° Northeast 225 259 7,500 -1,795 Descending Cleveland Center
Wed 12:40:03 PM 42.4319 -83.4019 22° Northeast 218 251 5,700 -1,488 Descending Cleveland Center
Wed 12:41:10 PM 42.4400 -83.3236 82° East 206 237 4,300 -836 Descending Cleveland Center
Wed 12:42:05 PM 42.4164 -83.2608 117° Southeast 199 229 4,000 -293 Descending Cleveland Center
Wed 12:43:13 PM 42.3600 -83.2667 184° South 179 206 3,700 -265 Descending Cleveland Center

Login

Don't have an account? Register now (free) for customized features, flight alerts, and more!